createdAt,value
2023-08-07T00:02:26.292Z,78.91
2023-08-07T00:07:28.449Z,80.17
2023-08-07T00:12:32.043Z,80.28
2023-08-07T00:17:34.103Z,80.84
2023-08-07T00:22:36.126Z,80.64
2023-08-07T00:27:39.511Z,81.03
2023-08-07T00:32:41.596Z,81.52
2023-08-07T00:37:43.653Z,81.23
2023-08-07T00:42:47.054Z,80.73
2023-08-07T00:47:49.148Z,81.08
2023-08-07T00:52:51.316Z,81.35
2023-08-07T00:57:54.932Z,81.32
2023-08-07T01:02:57.785Z,81.50
2023-08-07T01:07:59.954Z,81.03
2023-08-07T01:13:15.306Z,81.68
2023-08-07T01:18:18.145Z,81.27
2023-08-07T01:23:21.534Z,80.85
2023-08-07T01:28:29.354Z,81.11
2023-08-07T01:33:35.781Z,80.50
2023-08-07T01:38:40.078Z,80.69
2023-08-07T01:43:42.243Z,80.85
2023-08-07T01:48:44.254Z,80.36
2023-08-07T01:53:48.884Z,80.26
2023-08-07T01:58:50.921Z,80.87
2023-08-07T02:03:52.987Z,81.43
2023-08-07T02:08:56.434Z,81.94
2023-08-07T02:13:58.536Z,82.64
2023-08-07T02:19:00.663Z,82.87
2023-08-07T02:24:04.594Z,82.73
2023-08-07T02:29:08.410Z,83.33
2023-08-07T02:34:10.464Z,83.94
2023-08-07T02:39:14.753Z,84.71
2023-08-07T02:44:18.573Z,85.59
2023-08-07T02:49:20.865Z,85.78
2023-08-07T02:54:24.265Z,86.82
2023-08-07T02:59:26.296Z,86.72
2023-08-07T03:04:28.327Z,100.00
2023-08-07T03:09:31.712Z,100.00
2023-08-07T03:14:33.768Z,100.00
2023-08-07T03:19:36.318Z,100.00
2023-08-07T03:24:39.791Z,100.00
2023-08-07T03:29:43.826Z,100.00
2023-08-07T03:34:48.016Z,100.00
2023-08-07T03:39:51.489Z,85.10
2023-08-07T03:44:53.536Z,84.60
2023-08-07T03:49:55.586Z,84.40
2023-08-07T03:54:58.995Z,84.52
2023-08-07T04:00:01.169Z,83.77
2023-08-07T04:05:03.569Z,84.06
2023-08-07T04:10:07.286Z,83.31
2023-08-07T04:15:11.081Z,83.41
2023-08-07T04:20:13.230Z,82.27
2023-08-07T04:25:16.854Z,82.22
2023-08-07T04:30:18.995Z,80.84
2023-08-07T04:35:21.055Z,81.03
2023-08-07T04:40:24.467Z,79.90
2023-08-07T04:45:26.446Z,79.95
2023-08-07T04:50:28.430Z,78.50
2023-08-07T04:55:32.126Z,77.38
2023-08-07T05:00:34.395Z,75.30
2023-08-07T05:05:36.558Z,74.45
2023-08-07T05:10:39.983Z,74.14
2023-08-07T05:15:42.063Z,74.21
2023-08-07T05:20:44.068Z,74.02
2023-08-07T05:25:49.813Z,73.81
2023-08-07T05:30:52.062Z,73.74
2023-08-07T05:35:54.168Z,73.79
2023-08-07T05:40:57.584Z,72.52
2023-08-07T05:45:59.631Z,74.22
2023-08-07T05:51:01.662Z,73.10
2023-08-07T05:56:05.115Z,73.39
2023-08-07T06:01:07.183Z,72.43
2023-08-07T06:06:09.207Z,71.21
2023-08-07T06:11:12.669Z,73.03
2023-08-07T06:16:14.746Z,72.87
2023-08-07T06:21:16.957Z,73.32
2023-08-07T06:26:20.320Z,72.06
2023-08-07T06:31:22.358Z,71.09
2023-08-07T06:36:24.603Z,70.23
2023-08-07T06:41:27.824Z,70.10
2023-08-07T06:46:29.962Z,71.47
2023-08-07T06:51:31.874Z,71.35
2023-08-07T06:56:35.566Z,72.13
2023-08-07T07:01:37.684Z,72.15
2023-08-07T07:06:39.769Z,73.01
2023-08-07T07:11:44.611Z,73.12
2023-08-07T07:16:46.652Z,72.75
2023-08-07T07:21:48.650Z,72.78
2023-08-07T07:26:52.144Z,72.21
2023-08-07T07:31:56.334Z,71.51
2023-08-07T07:36:58.662Z,71.26
2023-08-07T07:42:02.131Z,71.46
2023-08-07T07:47:04.569Z,71.86
2023-08-07T07:52:07.965Z,71.91
2023-08-07T07:57:11.776Z,72.76
2023-08-07T08:02:13.812Z,74.06
2023-08-07T08:07:16.563Z,73.61
2023-08-07T08:12:19.975Z,73.92
2023-08-07T08:17:22.055Z,77.06
2023-08-07T08:22:23.970Z,77.31
2023-08-07T08:27:27.486Z,76.85
2023-08-07T08:32:29.570Z,75.80
2023-08-07T08:37:31.890Z,74.65
2023-08-07T08:42:35.565Z,75.25
2023-08-07T08:47:39.337Z,73.46
2023-08-07T08:52:44.545Z,71.28
2023-08-07T08:57:48.489Z,71.97
2023-08-07T09:02:52.013Z,69.20
2023-08-07T09:07:54.658Z,70.08
2023-08-07T09:13:01.448Z,69.77
2023-08-07T09:18:08.720Z,71.10
2023-08-07T09:23:10.891Z,70.80
2023-08-07T09:28:14.643Z,68.96
2023-08-07T09:33:24.917Z,69.93
2023-08-07T09:38:29.501Z,69.21
2023-08-07T09:43:36.781Z,71.27
2023-08-07T09:48:44.102Z,69.98
2023-08-07T09:53:48.447Z,68.60
2023-08-07T09:58:54.278Z,67.77
2023-08-07T10:03:56.509Z,67.01
2023-08-07T10:09:01.663Z,66.89
2023-08-07T10:14:05.540Z,68.85
2023-08-07T10:19:07.698Z,69.05
2023-08-07T10:24:13.449Z,68.91
2023-08-07T10:29:20.360Z,68.17
2023-08-07T10:34:23.048Z,68.03
2023-08-07T10:39:25.487Z,67.70
2023-08-07T10:44:34.790Z,66.40
2023-08-07T10:49:38.553Z,65.31
2023-08-07T10:54:43.876Z,66.32
2023-08-07T10:59:50.944Z,66.91
2023-08-07T11:04:53.830Z,65.35
2023-08-07T11:09:56.566Z,66.61
2023-08-07T11:15:00.294Z,64.98
2023-08-07T11:20:02.832Z,67.88
2023-08-07T11:25:06.215Z,74.38
2023-08-07T11:30:13.823Z,77.35
2023-08-07T11:35:16.038Z,78.25
2023-08-07T11:40:18.285Z,79.95
2023-08-07T11:45:21.893Z,78.45
2023-08-07T11:50:24.115Z,81.54
2023-08-07T11:55:26.144Z,79.89
2023-08-07T12:00:30.293Z,79.69
2023-08-07T12:05:39.918Z,81.41
2023-08-07T12:10:42.150Z,83.87
2023-08-07T12:15:45.409Z,83.94
2023-08-07T12:20:47.882Z,84.53
2023-08-07T12:25:50.070Z,82.15
2023-08-07T12:30:53.386Z,80.78
2023-08-07T12:35:55.525Z,80.83
2023-08-07T12:40:58.403Z,81.24
2023-08-07T12:51:07.745Z,82.57
2023-08-07T12:56:09.961Z,81.17
2023-08-07T13:01:13.225Z,82.58
2023-08-07T13:06:15.305Z,81.59
2023-08-07T13:11:17.301Z,81.87
2023-08-07T13:16:20.753Z,80.49
2023-08-07T13:21:22.848Z,80.88
2023-08-07T13:26:25.047Z,79.77
2023-08-07T13:31:28.878Z,79.64
2023-08-07T13:36:31.064Z,81.23
2023-08-07T13:41:33.876Z,80.80
2023-08-07T13:46:38.347Z,80.45
2023-08-07T13:51:41.566Z,80.79
2023-08-07T13:56:43.586Z,78.63
2023-08-07T14:01:46.989Z,75.31
2023-08-07T14:06:49.059Z,72.73
2023-08-07T14:11:51.357Z,72.52
2023-08-07T14:16:58.290Z,71.52
2023-08-07T14:22:00.377Z,71.65
2023-08-07T14:27:02.477Z,69.65
2023-08-07T14:32:09.114Z,67.68
2023-08-07T14:37:11.515Z,69.77
2023-08-07T14:42:13.520Z,66.35
2023-08-07T14:47:16.977Z,66.68
2023-08-07T14:52:19.065Z,65.41
2023-08-07T14:57:21.033Z,65.85
2023-08-07T15:02:24.501Z,66.68
2023-08-07T15:07:26.572Z,63.98
2023-08-07T15:12:28.458Z,65.00
2023-08-07T15:17:31.884Z,65.99
2023-08-07T15:22:33.940Z,66.68
2023-08-07T15:27:36.002Z,64.70
2023-08-07T15:32:39.474Z,65.19
2023-08-07T15:37:41.526Z,65.12
2023-08-07T15:42:46.617Z,65.96
2023-08-07T15:47:50.276Z,67.59
2023-08-07T15:52:52.630Z,68.26
2023-08-07T15:57:54.751Z,69.08
2023-08-07T16:02:58.067Z,68.75
2023-08-07T16:08:00.549Z,69.46
2023-08-07T16:13:02.633Z,70.85
2023-08-07T16:18:06.249Z,69.77
2023-08-07T16:23:08.950Z,71.03
2023-08-07T16:28:10.904Z,71.44
2023-08-07T16:33:14.372Z,72.83
2023-08-07T16:38:16.485Z,72.62
2023-08-07T16:43:18.545Z,72.66
2023-08-07T16:48:21.941Z,73.04
2023-08-07T16:53:24.076Z,73.69
2023-08-07T16:58:27.204Z,72.51
2023-08-07T17:03:30.670Z,72.83
2023-08-07T17:08:34.145Z,73.87
2023-08-07T17:13:37.409Z,73.76
2023-08-07T17:18:40.764Z,74.02
2023-08-07T17:23:43.044Z,74.62
2023-08-07T17:28:45.182Z,75.13
2023-08-07T17:33:48.619Z,76.27
2023-08-07T17:38:50.875Z,76.97
2023-08-07T17:43:52.963Z,77.56
2023-08-07T17:48:56.392Z,77.18
2023-08-07T17:53:58.573Z,76.11
2023-08-07T17:59:00.698Z,77.60
2023-08-07T18:04:05.267Z,77.53
2023-08-07T18:09:07.342Z,77.68
2023-08-07T18:14:09.395Z,77.39
2023-08-07T18:19:14.253Z,77.37
2023-08-07T18:24:17.284Z,77.97
2023-08-07T18:29:19.310Z,77.23
2023-08-07T18:34:22.913Z,76.62
2023-08-07T18:39:25.111Z,77.38
2023-08-07T18:44:27.148Z,77.39
2023-08-07T18:49:30.675Z,77.79
2023-08-07T18:54:32.759Z,78.45
2023-08-07T18:59:35.607Z,79.50
2023-08-07T19:04:38.978Z,79.09
2023-08-07T19:09:41.034Z,79.31
2023-08-07T19:14:43.159Z,79.23
2023-08-07T19:19:46.529Z,78.66
2023-08-07T19:24:48.623Z,77.92
2023-08-07T19:29:50.822Z,77.83
2023-08-07T19:34:54.419Z,77.28
2023-08-07T19:39:56.434Z,76.62
2023-08-07T19:44:58.467Z,77.35
2023-08-07T19:50:01.922Z,76.95
2023-08-07T19:55:04.686Z,76.63
2023-08-07T20:00:08.201Z,76.21
2023-08-07T20:05:11.699Z,76.53
2023-08-07T20:10:14.473Z,77.07
2023-08-07T20:15:17.141Z,77.19
2023-08-07T20:20:21.374Z,76.51
2023-08-07T20:25:23.632Z,76.18
2023-08-07T20:30:26.651Z,75.52
2023-08-07T20:35:30.191Z,76.05
2023-08-07T20:40:32.492Z,75.78
2023-08-07T20:45:34.568Z,75.90
2023-08-07T20:50:38.002Z,75.86
2023-08-07T20:55:40.075Z,76.00
2023-08-07T21:00:42.200Z,76.12
2023-08-07T21:05:45.796Z,76.91
2023-08-07T21:10:47.964Z,76.93
2023-08-07T21:15:50.014Z,77.11
2023-08-07T21:20:53.405Z,77.35
2023-08-07T21:25:55.608Z,77.85
2023-08-07T21:30:57.747Z,77.46
2023-08-07T21:36:01.289Z,77.32
2023-08-07T21:41:03.393Z,77.26
2023-08-07T21:46:05.471Z,76.66
2023-08-07T21:51:08.920Z,78.38
2023-08-07T21:56:10.972Z,79.58
2023-08-07T22:01:12.999Z,80.40
2023-08-07T22:06:16.582Z,79.79
2023-08-07T22:11:18.694Z,80.01
2023-08-07T22:16:20.974Z,79.95
2023-08-07T22:21:24.450Z,78.62
2023-08-07T22:26:27.394Z,79.12
2023-08-07T22:31:29.441Z,78.85
2023-08-07T22:36:32.781Z,78.02
2023-08-07T22:41:34.921Z,78.82
2023-08-07T22:46:36.917Z,78.97
2023-08-07T22:51:40.273Z,78.75
2023-08-07T22:56:42.265Z,78.13
2023-08-07T23:01:44.333Z,78.22
2023-08-07T23:06:47.834Z,78.15
2023-08-07T23:11:49.908Z,78.15
2023-08-07T23:16:51.962Z,78.49
2023-08-07T23:21:55.338Z,78.66
2023-08-07T23:26:58.379Z,78.66
2023-08-07T23:32:00.587Z,79.38
2023-08-07T23:37:04.428Z,79.05
2023-08-07T23:42:06.999Z,78.55
2023-08-07T23:47:09.094Z,79.23
2023-08-07T23:52:12.519Z,78.64
2023-08-07T23:57:14.552Z,80.36
